Time;durP1;ratioP1;P1;durP2;ratioP2;P2;SDS_P1;SDS_P2;PMS_P1;PMS_P2;Temp;Humidity;BMP_temperature;BMP_pressure;BME280_temperature;BME280_humidity;BME280_pressure;Samples;Min_cycle;Max_cycle;Signal;HPM_P1;HPM_P2
2023/08/18 00:00:25;;;;;;;9.17;7.23;;;;;;;;;;5015041;28;20595;-75
2023/08/18 00:02:50;;;;;;;8.55;7.75;;;;;;;;;;5033145;28;20297;-76
2023/08/18 00:05:15;;;;;;;8.75;7.85;;;;;;;;;;5033482;28;20064;-76
2023/08/18 00:07:41;;;;;;;12.10;7.88;;;;;;;;;;5033290;28;20124;-76
2023/08/18 00:10:08;;;;;;;8.45;7.57;;;;;;;;;;5014935;28;20091;-76
2023/08/18 00:12:33;;;;;;;9.48;8.57;;;;;;;;;;5033101;28;20399;-75
2023/08/18 00:14:58;;;;;;;9.43;8.32;;;;;;;;;;5033288;28;20109;-76
2023/08/18 00:17:23;;;;;;;10.23;8.67;;;;;;;;;;5032952;28;20040;-75
2023/08/18 00:19:48;;;;;;;9.15;8.30;;;;;;;;;;5032771;28;20268;-76
2023/08/18 00:22:14;;;;;;;9.13;8.13;;;;;;;;;;5033018;28;20037;-76
2023/08/18 00:24:39;;;;;;;8.97;8.07;;;;;;;;;;5033038;28;20367;-75
2023/08/18 00:27:04;;;;;;;8.05;7.22;;;;;;;;;;5032938;28;20290;-76
2023/08/18 00:29:29;;;;;;;8.30;7.55;;;;;;;;;;5032173;28;20120;-76
2023/08/18 00:31:55;;;;;;;8.82;7.93;;;;;;;;;;5014731;28;20037;-75
2023/08/18 00:34:21;;;;;;;11.18;8.50;;;;;;;;;;5015051;28;20076;-76
2023/08/18 00:36:46;;;;;;;9.45;7.90;;;;;;;;;;5013922;28;20025;-75
2023/08/18 00:39:11;;;;;;;9.80;8.75;;;;;;;;;;5014485;28;20064;-76
2023/08/18 00:41:37;;;;;;;10.45;8.82;;;;;;;;;;5032585;28;20075;-75
2023/08/18 00:44:02;;;;;;;10.30;9.15;;;;;;;;;;5032241;28;20029;-76
2023/08/18 00:46:28;;;;;;;15.15;13.65;;;;;;;;;;5013529;28;20029;-76
2023/08/18 00:48:58;;;;;;;15.27;13.68;;;;;;;;;;5031498;28;20736;-76
2023/08/18 00:51:23;;;;;;;12.68;11.43;;;;;;;;;;5032440;28;20041;-75
2023/08/18 00:53:48;;;;;;;13.88;12.48;;;;;;;;;;5032406;28;20029;-76
2023/08/18 00:56:14;;;;;;;14.13;12.60;;;;;;;;;;5032471;28;20205;-76
2023/08/18 00:58:39;;;;;;;15.23;13.65;;;;;;;;;;4997910;28;20041;-76
2023/08/18 01:01:05;;;;;;;14.20;12.80;;;;;;;;;;5031453;28;20061;-76
2023/08/18 01:03:30;;;;;;;15.13;13.73;;;;;;;;;;5032180;28;20091;-76
2023/08/18 01:05:56;;;;;;;14.07;12.68;;;;;;;;;;5032293;28;20033;-76
2023/08/18 01:08:21;;;;;;;12.05;10.85;;;;;;;;;;5032145;28;20120;-76
2023/08/18 01:11:00;;;;;;;10.27;9.27;;;;;;;;;;5013272;28;20057;-76
2023/08/18 01:13:37;;;;;;;13.25;10.55;;;;;;;;;;5014288;28;20400;-76
2023/08/18 01:16:04;;;;;;;10.90;9.63;;;;;;;;;;5029336;28;20106;-76
2023/08/18 01:18:30;;;;;;;13.20;10.98;;;;;;;;;;5013677;28;20108;-76
2023/08/18 01:20:58;;;;;;;9.95;8.98;;;;;;;;;;5012921;28;20600;-75
2023/08/18 01:23:35;;;;;;;12.55;9.05;;;;;;;;;;5031813;28;20503;-76
2023/08/18 01:26:00;;;;;;;11.63;9.30;;;;;;;;;;5031907;28;20034;-76
2023/08/18 01:28:25;;;;;;;8.33;7.53;;;;;;;;;;5031977;28;20387;-76
2023/08/18 01:30:51;;;;;;;9.33;8.43;;;;;;;;;;5030877;28;20280;-75
2023/08/18 01:33:28;;;;;;;9.73;8.57;;;;;;;;;;5013881;28;20292;-75
2023/08/18 01:35:55;;;;;;;8.77;7.90;;;;;;;;;;5029285;28;20510;-76
2023/08/18 01:38:22;;;;;;;9.20;8.30;;;;;;;;;;5031639;28;20033;-75
2023/08/18 01:40:47;;;;;;;12.20;10.25;;;;;;;;;;5013208;28;20476;-75
2023/08/18 01:43:13;;;;;;;11.98;10.63;;;;;;;;;;5013742;28;20079;-75
2023/08/18 01:45:38;;;;;;;11.55;9.20;;;;;;;;;;5013804;28;20041;-76
2023/08/18 01:48:03;;;;;;;11.93;9.52;;;;;;;;;;5013182;28;20045;-76
2023/08/18 01:50:28;;;;;;;9.25;8.35;;;;;;;;;;5030917;28;20051;-76
2023/08/18 01:52:55;;;;;;;9.75;8.30;;;;;;;;;;5013609;28;20116;-76
2023/08/18 01:55:21;;;;;;;11.35;8.82;;;;;;;;;;5031301;28;20650;-76
2023/08/18 01:57:46;;;;;;;10.43;8.60;;;;;;;;;;5031252;28;20172;-76
2023/08/18 02:00:11;;;;;;;12.27;10.48;;;;;;;;;;5030576;28;20278;-75
2023/08/18 02:02:40;;;;;;;12.25;11.05;;;;;;;;;;5033344;23;20052;-79
2023/08/18 02:05:06;;;;;;;15.17;11.77;;;;;;;;;;5030945;28;20025;-79
2023/08/18 02:07:32;;;;;;;10.30;9.30;;;;;;;;;;5040482;28;20299;-79
2023/08/18 02:09:58;;;;;;;13.90;12.53;;;;;;;;;;5046186;28;20732;-79
2023/08/18 02:12:24;;;;;;;11.02;9.90;;;;;;;;;;5046751;28;20271;-80
2023/08/18 02:14:49;;;;;;;12.07;10.75;;;;;;;;;;5044125;28;20029;-79
2023/08/18 02:17:15;;;;;;;11.93;10.40;;;;;;;;;;5047405;28;20380;-79
2023/08/18 02:19:40;;;;;;;14.60;13.20;;;;;;;;;;5036177;28;20497;-80
2023/08/18 02:22:05;;;;;;;12.57;10.77;;;;;;;;;;5027106;28;20030;-79
2023/08/18 02:24:30;;;;;;;16.63;14.77;;;;;;;;;;5030952;28;20065;-79
2023/08/18 02:26:56;;;;;;;15.07;13.63;;;;;;;;;;5039351;28;20027;-79
2023/08/18 02:29:21;;;;;;;17.92;16.02;;;;;;;;;;5030028;28;20491;-79
2023/08/18 02:31:47;;;;;;;14.73;13.23;;;;;;;;;;5030522;28;20030;-78
2023/08/18 02:34:12;;;;;;;13.13;11.88;;;;;;;;;;5046986;28;20025;-80
2023/08/18 02:36:37;;;;;;;12.57;10.77;;;;;;;;;;5045321;28;20511;-80
2023/08/18 02:39:02;;;;;;;13.30;12.00;;;;;;;;;;5013348;28;20025;-79
2023/08/18 02:41:28;;;;;;;12.35;11.13;;;;;;;;;;5047089;28;20029;-80
2023/08/18 02:43:53;;;;;;;15.38;11.45;;;;;;;;;;5013069;28;20033;-79
2023/08/18 02:46:18;;;;;;;14.60;13.25;;;;;;;;;;5035139;28;20068;-80
2023/08/18 02:48:43;;;;;;;11.20;10.07;;;;;;;;;;5046898;28;20033;-79
2023/08/18 02:51:09;;;;;;;13.90;11.82;;;;;;;;;;5028246;28;20287;-80
2023/08/18 02:53:35;;;;;;;10.60;8.82;;;;;;;;;;5028747;28;20029;-78
2023/08/18 02:56:01;;;;;;;9.82;8.70;;;;;;;;;;5032613;28;20033;-79
2023/08/18 02:58:27;;;;;;;10.55;8.55;;;;;;;;;;5037572;28;20083;-79
2023/08/18 03:00:52;;;;;;;8.80;7.90;;;;;;;;;;5037652;28;20033;-80
2023/08/18 03:03:18;;;;;;;9.27;8.32;;;;;;;;;;5050615;28;20570;-80
2023/08/18 03:05:46;;;;;;;9.85;8.85;;;;;;;;;;5045537;28;20357;-79
2023/08/18 03:08:11;;;;;;;11.05;9.07;;;;;;;;;;5047702;28;20036;-79
2023/08/18 03:10:36;;;;;;;9.80;8.77;;;;;;;;;;5033299;28;20030;-79
2023/08/18 03:13:03;;;;;;;9.77;8.75;;;;;;;;;;5031304;28;20083;-80
2023/08/18 03:15:29;;;;;;;8.80;7.70;;;;;;;;;;5049848;28;20067;-80
2023/08/18 03:17:54;;;;;;;10.38;9.38;;;;;;;;;;5047820;28;20123;-79
2023/08/18 03:20:19;;;;;;;12.10;10.90;;;;;;;;;;5049570;28;20033;-79
2023/08/18 03:22:44;;;;;;;13.77;11.45;;;;;;;;;;5030933;28;20279;-80
2023/08/18 03:25:10;;;;;;;13.87;10.83;;;;;;;;;;5046002;28;20404;-79
2023/08/18 03:27:35;;;;;;;19.05;17.15;;;;;;;;;;5020089;28;20265;-79
2023/08/18 03:30:01;;;;;;;16.42;14.73;;;;;;;;;;5048424;28;20029;-80
2023/08/18 03:32:26;;;;;;;15.52;13.93;;;;;;;;;;5050482;28;20033;-80
2023/08/18 03:34:52;;;;;;;15.25;12.57;;;;;;;;;;5032484;28;20036;-78
2023/08/18 03:37:20;;;;;;;15.73;14.02;;;;;;;;;;5032362;28;20032;-79
2023/08/18 03:39:45;;;;;;;14.93;13.43;;;;;;;;;;5048407;28;20022;-79
2023/08/18 03:42:11;;;;;;;16.58;14.95;;;;;;;;;;5033199;28;20504;-80
2023/08/18 03:44:37;;;;;;;13.73;12.43;;;;;;;;;;5017537;28;20040;-80
2023/08/18 03:47:02;;;;;;;11.57;10.38;;;;;;;;;;5049245;28;20540;-79
2023/08/18 03:49:28;;;;;;;10.82;9.73;;;;;;;;;;5029349;28;20030;-79
2023/08/18 03:51:54;;;;;;;12.63;11.43;;;;;;;;;;5048553;28;20044;-79
2023/08/18 03:54:19;;;;;;;11.35;10.25;;;;;;;;;;5048988;28;20029;-80
2023/08/18 03:56:44;;;;;;;12.95;11.75;;;;;;;;;;5031444;28;20025;-80
2023/08/18 03:59:14;;;;;;;12.93;11.70;;;;;;;;;;5028791;28;20063;-80
2023/08/18 04:01:39;;;;;;;13.00;11.70;;;;;;;;;;5028924;28;20029;-80
2023/08/18 04:04:04;;;;;;;12.15;10.98;;;;;;;;;;5026859;28;20037;-79
2023/08/18 04:06:30;;;;;;;11.60;10.50;;;;;;;;;;5049918;28;20037;-79
2023/08/18 04:09:06;;;;;;;14.23;12.82;;;;;;;;;;5022449;28;20519;-79
2023/08/18 04:11:31;;;;;;;12.40;10.93;;;;;;;;;;5036305;28;20048;-79
2023/08/18 04:13:56;;;;;;;13.15;11.82;;;;;;;;;;5045253;28;20029;-79
2023/08/18 04:16:21;;;;;;;13.73;12.35;;;;;;;;;;5033462;28;20026;-79
2023/08/18 04:18:47;;;;;;;12.53;11.33;;;;;;;;;;5047166;28;20041;-79
2023/08/18 04:21:12;;;;;;;12.57;11.40;;;;;;;;;;5030459;28;20303;-79
2023/08/18 04:23:38;;;;;;;12.63;11.43;;;;;;;;;;5038943;28;20025;-79
2023/08/18 04:26:03;;;;;;;14.65;13.25;;;;;;;;;;5046035;28;20028;-79
2023/08/18 04:28:29;;;;;;;13.45;12.10;;;;;;;;;;5028607;28;20033;-79
2023/08/18 04:30:55;;;;;;;12.98;11.60;;;;;;;;;;5017227;28;20032;-79
2023/08/18 04:33:33;;;;;;;15.50;13.70;;;;;;;;;;5044419;28;20044;-80
2023/08/18 04:35:59;;;;;;;20.17;17.73;;;;;;;;;;5028075;28;20025;-78
2023/08/18 04:38:24;;;;;;;22.95;20.48;;;;;;;;;;5047767;28;20049;-79
2023/08/18 04:41:00;;;;;;;16.00;14.30;;;;;;;;;;5016499;28;20034;-79
2023/08/18 04:43:26;;;;;;;12.07;10.57;;;;;;;;;;5026567;28;20052;-80
2023/08/18 04:45:52;;;;;;;13.35;10.75;;;;;;;;;;5022703;28;20034;-80
2023/08/18 04:48:22;;;;;;;14.27;12.88;;;;;;;;;;5022461;28;20052;-79
2023/08/18 04:50:48;;;;;;;12.20;11.00;;;;;;;;;;5029771;28;20037;-80
2023/08/18 04:53:14;;;;;;;15.77;14.18;;;;;;;;;;5008469;28;20076;-80
2023/08/18 04:55:39;;;;;;;18.45;16.30;;;;;;;;;;5024064;28;20059;-79
2023/08/18 04:58:04;;;;;;;14.97;12.87;;;;;;;;;;5046866;28;20096;-80
2023/08/18 05:00:29;;;;;;;12.75;11.00;;;;;;;;;;5047102;28;20762;-79
2023/08/18 05:02:55;;;;;;;12.63;10.40;;;;;;;;;;5022531;28;20060;-79
2023/08/18 05:05:21;;;;;;;13.30;10.30;;;;;;;;;;5044841;28;20037;-79
2023/08/18 05:07:46;;;;;;;13.45;12.13;;;;;;;;;;5037082;28;20033;-79
2023/08/18 05:10:11;;;;;;;13.07;11.80;;;;;;;;;;5028518;28;20040;-79
2023/08/18 05:12:36;;;;;;;12.35;10.75;;;;;;;;;;5029530;28;20052;-79
2023/08/18 05:15:03;;;;;;;12.60;11.30;;;;;;;;;;5046026;28;20066;-80
2023/08/18 05:17:29;;;;;;;12.10;10.82;;;;;;;;;;5037826;28;20029;-79
2023/08/18 05:19:54;;;;;;;15.60;13.40;;;;;;;;;;5011281;28;20026;-79
2023/08/18 05:22:21;;;;;;;20.65;18.45;;;;;;;;;;5047298;28;20022;-80
2023/08/18 05:24:48;;;;;;;15.70;14.20;;;;;;;;;;5039969;28;20029;-79
2023/08/18 05:27:13;;;;;;;13.07;11.73;;;;;;;;;;5030541;28;20037;-80
2023/08/18 05:29:38;;;;;;;14.90;11.63;;;;;;;;;;5029184;28;20095;-80
2023/08/18 05:32:03;;;;;;;14.13;12.83;;;;;;;;;;5046763;28;20042;-79
2023/08/18 05:34:29;;;;;;;15.97;14.47;;;;;;;;;;5047854;28;20288;-79
2023/08/18 05:36:54;;;;;;;17.83;16.07;;;;;;;;;;5037735;28;20276;-79
2023/08/18 05:39:19;;;;;;;15.87;14.23;;;;;;;;;;5046316;28;20276;-80
2023/08/18 05:41:44;;;;;;;15.35;13.95;;;;;;;;;;5045785;28;20410;-79
2023/08/18 05:44:09;;;;;;;14.10;12.60;;;;;;;;;;5046609;28;20124;-79
2023/08/18 05:46:35;;;;;;;19.15;13.02;;;;;;;;;;5047240;28;20272;-79
2023/08/18 05:49:00;;;;;;;18.65;13.38;;;;;;;;;;5028444;28;20087;-79
2023/08/18 05:51:25;;;;;;;26.20;16.85;;;;;;;;;;5037184;28;20030;-80
2023/08/18 05:53:50;;;;;;;20.60;16.27;;;;;;;;;;5045360;28;20966;-79
2023/08/18 05:56:17;;;;;;;24.88;16.35;;;;;;;;;;5046384;28;20043;-80
2023/08/18 05:58:42;;;;;;;22.17;16.70;;;;;;;;;;5045984;28;20095;-80
2023/08/18 06:01:08;;;;;;;21.00;16.27;;;;;;;;;;5032836;28;20037;-80
2023/08/18 06:03:34;;;;;;;19.40;14.70;;;;;;;;;;5028471;28;20313;-80
2023/08/18 06:06:02;;;;;;;20.92;16.23;;;;;;;;;;5045701;28;20036;-80
2023/08/18 06:08:28;;;;;;;21.45;15.50;;;;;;;;;;5029496;28;20033;-80
2023/08/18 06:11:00;;;;;;;21.42;15.23;;;;;;;;;;5028279;28;20101;-79
2023/08/18 06:13:25;;;;;;;17.48;15.15;;;;;;;;;;5041623;28;20452;-80
2023/08/18 06:15:52;;;;;;;20.10;17.80;;;;;;;;;;5028737;28;20025;-79
2023/08/18 06:18:18;;;;;;;22.02;17.88;;;;;;;;;;5048037;28;20025;-79
2023/08/18 06:20:47;;;;;;;20.27;17.95;;;;;;;;;;5037509;28;20048;-80
2023/08/18 06:23:12;;;;;;;19.38;15.77;;;;;;;;;;5029814;28;20085;-79
2023/08/18 06:25:41;;;;;;;16.08;13.57;;;;;;;;;;5047326;28;20036;-79
2023/08/18 06:28:06;;;;;;;21.38;17.95;;;;;;;;;;5034615;28;20026;-80
2023/08/18 06:30:32;;;;;;;25.48;22.35;;;;;;;;;;5045494;28;20044;-80
2023/08/18 06:32:57;;;;;;;23.45;17.50;;;;;;;;;;5037004;28;20037;-80
2023/08/18 06:35:22;;;;;;;18.23;15.17;;;;;;;;;;5048729;28;20033;-79
2023/08/18 06:37:48;;;;;;;21.38;17.05;;;;;;;;;;5049065;28;20286;-80
2023/08/18 06:40:13;;;;;;;21.20;18.83;;;;;;;;;;5042573;28;20063;-79
2023/08/18 06:42:38;;;;;;;23.38;19.27;;;;;;;;;;5049767;28;20303;-79
2023/08/18 06:45:04;;;;;;;18.67;16.73;;;;;;;;;;5031664;28;20115;-79
2023/08/18 06:47:29;;;;;;;24.60;19.52;;;;;;;;;;5029575;28;20033;-80
2023/08/18 06:49:55;;;;;;;23.97;20.23;;;;;;;;;;5040260;28;20060;-80
2023/08/18 06:52:20;;;;;;;27.40;23.43;;;;;;;;;;5049597;28;20298;-80
2023/08/18 06:54:45;;;;;;;28.63;25.30;;;;;;;;;;5032663;28;20284;-80
2023/08/18 06:57:11;;;;;;;26.77;23.20;;;;;;;;;;5049691;28;20033;-79
2023/08/18 06:59:36;;;;;;;29.57;24.00;;;;;;;;;;5041094;28;20033;-79
2023/08/18 07:02:01;;;;;;;25.23;21.77;;;;;;;;;;5047614;28;20264;-79
2023/08/18 07:04:27;;;;;;;22.05;19.70;;;;;;;;;;5029260;28;20307;-79
2023/08/18 07:06:52;;;;;;;23.77;18.30;;;;;;;;;;5047049;28;20044;-80
2023/08/18 07:09:17;;;;;;;21.07;18.77;;;;;;;;;;5031031;28;20030;-80
2023/08/18 07:11:42;;;;;;;17.77;16.07;;;;;;;;;;5030346;28;20272;-79
2023/08/18 07:14:07;;;;;;;23.60;17.17;;;;;;;;;;5030889;28;20287;-79
2023/08/18 07:16:33;;;;;;;15.67;13.57;;;;;;;;;;5035792;28;20053;-80
2023/08/18 07:18:58;;;;;;;17.00;14.80;;;;;;;;;;5027140;28;20307;-79
2023/08/18 07:21:23;;;;;;;16.07;14.37;;;;;;;;;;5032071;28;20291;-80
2023/08/18 07:23:48;;;;;;;18.52;16.55;;;;;;;;;;5048238;28;20291;-80
2023/08/18 07:26:14;;;;;;;18.67;14.82;;;;;;;;;;5045053;28;20033;-79
2023/08/18 07:28:39;;;;;;;18.35;15.30;;;;;;;;;;5029652;28;20044;-79
2023/08/18 07:31:04;;;;;;;17.08;14.57;;;;;;;;;;5045822;28;20025;-80
2023/08/18 07:33:30;;;;;;;18.55;16.55;;;;;;;;;;5047551;28;20121;-80
2023/08/18 07:35:56;;;;;;;21.00;16.77;;;;;;;;;;5047196;28;20074;-80
2023/08/18 07:38:21;;;;;;;18.45;15.55;;;;;;;;;;5037556;28;20029;-80
2023/08/18 07:40:46;;;;;;;17.17;15.40;;;;;;;;;;5029438;28;20075;-79
2023/08/18 07:43:11;;;;;;;17.57;15.63;;;;;;;;;;5047207;28;20334;-80
2023/08/18 07:45:37;;;;;;;17.98;16.15;;;;;;;;;;5034889;28;20284;-80
2023/08/18 07:48:02;;;;;;;24.33;20.50;;;;;;;;;;5029903;28;20032;-80
2023/08/18 07:50:27;;;;;;;20.35;15.93;;;;;;;;;;5046771;28;20276;-80
2023/08/18 07:52:52;;;;;;;19.52;16.23;;;;;;;;;;5047220;28;20038;-79
2023/08/18 07:55:20;;;;;;;16.47;14.83;;;;;;;;;;5047602;28;20064;-80
2023/08/18 07:57:46;;;;;;;20.13;15.65;;;;;;;;;;5030485;28;20284;-80
2023/08/18 08:00:16;;;;;;;19.65;17.15;;;;;;;;;;5026618;28;20097;-81
2023/08/18 08:02:42;;;;;;;16.40;14.65;;;;;;;;;;5012630;28;20026;-80
2023/08/18 08:05:07;;;;;;;20.25;18.35;;;;;;;;;;5047693;28;20051;-80
2023/08/18 08:07:33;;;;;;;17.80;14.95;;;;;;;;;;5029369;28;20030;-79
2023/08/18 08:10:02;;;;;;;17.05;15.25;;;;;;;;;;5048234;28;20239;-79
2023/08/18 08:12:28;;;;;;;20.17;16.60;;;;;;;;;;5039886;28;20043;-80
2023/08/18 08:14:53;;;;;;;18.63;16.77;;;;;;;;;;5048402;28;20064;-80
2023/08/18 08:17:18;;;;;;;18.38;16.48;;;;;;;;;;5047777;28;20288;-80
2023/08/18 08:19:43;;;;;;;17.17;14.97;;;;;;;;;;5047596;28;20030;-78
2023/08/18 08:22:09;;;;;;;16.27;14.57;;;;;;;;;;5046414;28;20343;-79
2023/08/18 08:24:34;;;;;;;16.65;14.77;;;;;;;;;;5046987;28;20339;-79
2023/08/18 08:27:00;;;;;;;17.10;15.48;;;;;;;;;;5046770;28;20089;-79
2023/08/18 08:29:25;;;;;;;20.73;17.00;;;;;;;;;;5047664;28;20040;-79
2023/08/18 08:31:50;;;;;;;20.23;18.20;;;;;;;;;;5047001;28;20322;-80
2023/08/18 08:34:15;;;;;;;17.63;15.80;;;;;;;;;;5047823;28;20288;-80
2023/08/18 08:36:41;;;;;;;19.90;17.80;;;;;;;;;;5039427;28;20033;-79
2023/08/18 08:39:08;;;;;;;21.40;18.57;;;;;;;;;;5047309;28;20025;-80
2023/08/18 08:41:33;;;;;;;18.02;16.13;;;;;;;;;;5026960;28;20941;-80
2023/08/18 08:43:59;;;;;;;17.60;15.90;;;;;;;;;;5048791;28;20033;-80
2023/08/18 08:46:24;;;;;;;17.37;15.67;;;;;;;;;;5048117;28;20284;-80
2023/08/18 08:48:51;;;;;;;17.45;15.75;;;;;;;;;;5047654;28;20275;-79
2023/08/18 08:51:18;;;;;;;18.08;16.20;;;;;;;;;;5038609;28;20064;-79
2023/08/18 08:53:47;;;;;;;18.95;16.95;;;;;;;;;;5030795;28;20124;-79
2023/08/18 08:56:14;;;;;;;19.10;17.30;;;;;;;;;;5047139;28;20080;-80
2023/08/18 08:58:39;;;;;;;17.75;15.73;;;;;;;;;;5047203;28;20026;-80
2023/08/18 09:01:06;;;;;;;16.33;14.63;;;;;;;;;;5045235;28;20121;-80
2023/08/18 09:03:32;;;;;;;19.98;17.98;;;;;;;;;;5029048;28;20041;-80
2023/08/18 09:05:57;;;;;;;21.10;19.02;;;;;;;;;;5037007;28;20052;-80
2023/08/18 09:08:23;;;;;;;22.07;19.87;;;;;;;;;;5046700;28;20025;-80
2023/08/18 09:10:48;;;;;;;18.77;16.92;;;;;;;;;;5044200;28;20276;-80
2023/08/18 09:13:13;;;;;;;17.45;15.65;;;;;;;;;;5044340;28;20053;-80
2023/08/18 09:15:44;;;;;;;18.17;16.35;;;;;;;;;;5032929;28;20216;-81
2023/08/18 09:18:10;;;;;;;15.98;14.48;;;;;;;;;;5029774;28;20124;-80
2023/08/18 09:20:36;;;;;;;15.45;13.95;;;;;;;;;;5029973;28;20029;-80
2023/08/18 09:23:01;;;;;;;16.25;14.65;;;;;;;;;;5038164;28;20094;-79
2023/08/18 09:25:26;;;;;;;15.50;13.97;;;;;;;;;;5042430;28;20030;-80
2023/08/18 09:27:51;;;;;;;18.77;17.07;;;;;;;;;;5029822;28;20275;-80
2023/08/18 09:30:16;;;;;;;18.30;15.23;;;;;;;;;;5029080;28;20268;-79
2023/08/18 09:32:42;;;;;;;17.98;16.08;;;;;;;;;;5026944;28;20296;-80
2023/08/18 09:35:11;;;;;;;16.13;14.55;;;;;;;;;;5047197;28;20917;-80
2023/08/18 09:37:36;;;;;;;16.48;14.80;;;;;;;;;;5043273;28;20040;-80
2023/08/18 09:40:02;;;;;;;15.60;13.98;;;;;;;;;;5041327;28;20053;-80
2023/08/18 09:42:27;;;;;;;16.33;14.73;;;;;;;;;;5047045;28;20029;-81
2023/08/18 09:44:53;;;;;;;17.23;15.35;;;;;;;;;;5038591;28;20124;-80
2023/08/18 09:47:19;;;;;;;17.15;15.45;;;;;;;;;;5037616;28;20037;-80
2023/08/18 09:49:46;;;;;;;15.90;13.77;;;;;;;;;;5047668;28;20519;-81
2023/08/18 09:52:12;;;;;;;17.60;15.90;;;;;;;;;;5047567;28;20558;-80
2023/08/18 09:54:53;;;;;;;15.73;14.23;;;;;;;;;;5032666;28;20034;-80
2023/08/18 09:57:25;;;;;;;16.80;15.20;;;;;;;;;;5047816;28;20112;-80
2023/08/18 09:59:57;;;;;;;15.50;14.00;;;;;;;;;;5041778;28;20037;-81
2023/08/18 10:02:23;;;;;;;15.45;13.60;;;;;;;;;;5028954;28;20025;-81
2023/08/18 10:04:49;;;;;;;14.18;12.88;;;;;;;;;;5047060;28;20072;-80
2023/08/18 10:07:15;;;;;;;15.63;13.65;;;;;;;;;;5027343;28;20099;-80
2023/08/18 10:09:41;;;;;;;16.13;14.63;;;;;;;;;;5024031;28;20059;-80
2023/08/18 10:12:06;;;;;;;14.70;13.30;;;;;;;;;;5033723;28;20387;-80
2023/08/18 10:14:32;;;;;;;15.80;14.30;;;;;;;;;;5024338;28;20033;-80
2023/08/18 10:16:59;;;;;;;17.25;15.45;;;;;;;;;;5018971;28;20033;-80
2023/08/18 10:19:43;;;;;;;14.45;13.10;;;;;;;;;;5030497;28;20036;-80
2023/08/18 10:22:08;;;;;;;16.67;15.15;;;;;;;;;;5032012;28;20033;-80
2023/08/18 10:24:36;;;;;;;14.55;13.15;;;;;;;;;;5042801;28;20037;-80
2023/08/18 10:27:06;;;;;;;19.45;17.67;;;;;;;;;;5044460;28;20132;-79
2023/08/18 10:29:34;;;;;;;18.85;16.92;;;;;;;;;;5032520;28;20159;-80
2023/08/18 10:32:05;;;;;;;14.15;12.80;;;;;;;;;;5019485;28;21514;-78
2023/08/18 10:34:31;;;;;;;23.02;20.73;;;;;;;;;;5024583;28;20049;-79
2023/08/18 10:36:59;;;;;;;15.10;13.60;;;;;;;;;;5032975;28;20036;-79
2023/08/18 10:39:32;;;;;;;13.00;11.85;;;;;;;;;;5020823;28;20112;-79
2023/08/18 10:42:05;;;;;;;13.75;12.45;;;;;;;;;;5007494;28;20054;-78
2023/08/18 10:44:30;;;;;;;14.95;13.65;;;;;;;;;;5015799;28;20033;-78
2023/08/18 10:46:57;;;;;;;28.37;25.40;;;;;;;;;;5033194;28;20109;-78
2023/08/18 10:49:22;;;;;;;25.55;23.15;;;;;;;;;;5032759;28;20306;-80
2023/08/18 10:51:49;;;;;;;16.20;14.37;;;;;;;;;;5036280;28;20033;-79
2023/08/18 10:54:14;;;;;;;13.95;12.02;;;;;;;;;;5039428;28;20291;-79
2023/08/18 10:56:40;;;;;;;13.00;11.60;;;;;;;;;;5036677;28;20545;-78
2023/08/18 10:59:05;;;;;;;13.98;12.13;;;;;;;;;;5032971;28;20030;-76
2023/08/18 11:01:30;;;;;;;12.15;10.95;;;;;;;;;;5014590;28;20068;-77
2023/08/18 11:03:57;;;;;;;11.38;10.27;;;;;;;;;;5031364;28;20037;-78
2023/08/18 11:06:26;;;;;;;13.27;11.88;;;;;;;;;;5031860;28;20052;-77
2023/08/18 11:08:52;;;;;;;11.43;10.38;;;;;;;;;;5028099;28;20077;-77
2023/08/18 11:11:19;;;;;;;21.55;18.90;;;;;;;;;;5031845;28;20504;-77
2023/08/18 11:13:44;;;;;;;15.25;13.75;;;;;;;;;;5031995;28;20492;-78
2023/08/18 11:16:09;;;;;;;12.07;10.97;;;;;;;;;;5031913;28;20037;-78
2023/08/18 11:18:34;;;;;;;20.60;18.80;;;;;;;;;;5031632;28;20029;-78
2023/08/18 11:21:00;;;;;;;25.33;22.93;;;;;;;;;;5031876;28;20035;-78
2023/08/18 11:23:26;;;;;;;19.80;17.90;;;;;;;;;;5033877;28;20334;-78
2023/08/18 11:25:51;;;;;;;12.18;10.98;;;;;;;;;;5035571;28;20071;-78
2023/08/18 11:28:17;;;;;;;13.98;12.52;;;;;;;;;;5033511;28;20066;-78
2023/08/18 11:30:43;;;;;;;14.57;13.27;;;;;;;;;;5021832;28;20038;-77
2023/08/18 11:33:08;;;;;;;16.98;15.38;;;;;;;;;;5035059;28;20026;-78
2023/08/18 11:35:34;;;;;;;17.57;15.77;;;;;;;;;;5026072;28;20563;-78
2023/08/18 11:37:59;;;;;;;10.68;9.63;;;;;;;;;;5034359;28;20654;-77
2023/08/18 11:40:24;;;;;;;17.55;16.05;;;;;;;;;;5034876;28;20030;-77
2023/08/18 11:42:53;;;;;;;19.88;17.73;;;;;;;;;;5035060;28;20033;-78
2023/08/18 11:45:20;;;;;;;14.68;13.38;;;;;;;;;;5035136;28;20029;-78
2023/08/18 11:47:46;;;;;;;13.25;11.88;;;;;;;;;;5017542;28;20057;-78
2023/08/18 11:50:19;;;;;;;10.77;9.77;;;;;;;;;;5034548;28;20107;-78
2023/08/18 11:52:45;;;;;;;16.02;14.63;;;;;;;;;;5032717;28;20041;-78
2023/08/18 11:55:11;;;;;;;13.10;11.85;;;;;;;;;;5034501;28;20033;-78
2023/08/18 11:57:40;;;;;;;16.25;14.73;;;;;;;;;;5035269;28;20369;-78
2023/08/18 12:00:11;;;;;;;15.70;14.30;;;;;;;;;;5034164;28;20029;-78
2023/08/18 12:02:39;;;;;;;13.05;11.75;;;;;;;;;;5034296;28;20037;-78
2023/08/18 12:05:05;;;;;;;14.30;12.93;;;;;;;;;;5033546;28;20152;-78
2023/08/18 12:07:31;;;;;;;10.13;9.15;;;;;;;;;;5015932;28;20034;-77
2023/08/18 12:09:56;;;;;;;11.40;10.30;;;;;;;;;;5033866;28;20504;-78
2023/08/18 12:12:21;;;;;;;11.10;10.00;;;;;;;;;;5034256;28;20044;-77
2023/08/18 12:14:46;;;;;;;19.70;17.90;;;;;;;;;;5019504;28;20026;-78
2023/08/18 12:17:12;;;;;;;13.83;12.43;;;;;;;;;;5034594;28;20314;-78
2023/08/18 12:19:37;;;;;;;10.20;9.20;;;;;;;;;;5033587;28;20048;-77
2023/08/18 12:22:03;;;;;;;12.20;10.23;;;;;;;;;;5034317;28;20040;-78
2023/08/18 12:24:28;;;;;;;15.32;13.93;;;;;;;;;;5034301;28;20048;-78
2023/08/18 12:26:54;;;;;;;9.60;8.50;;;;;;;;;;5016568;28;20029;-78
2023/08/18 12:29:19;;;;;;;12.77;11.63;;;;;;;;;;5015993;28;20288;-78
2023/08/18 12:31:44;;;;;;;12.17;11.07;;;;;;;;;;5034096;28;20272;-78
2023/08/18 12:34:09;;;;;;;10.27;9.37;;;;;;;;;;5034134;28;20037;-77
2023/08/18 12:36:34;;;;;;;14.43;13.13;;;;;;;;;;5033588;28;20029;-78
2023/08/18 12:39:00;;;;;;;14.80;13.47;;;;;;;;;;5033492;28;20033;-77
2023/08/18 12:41:27;;;;;;;18.80;17.10;;;;;;;;;;5033847;28;20275;-78
2023/08/18 12:43:52;;;;;;;13.57;12.32;;;;;;;;;;5034172;28;20030;-78
2023/08/18 12:46:17;;;;;;;7.68;6.95;;;;;;;;;;5034078;28;20030;-78
2023/08/18 12:48:42;;;;;;;7.43;6.35;;;;;;;;;;5016469;28;20736;-78
2023/08/18 12:51:08;;;;;;;7.33;6.30;;;;;;;;;;5033651;28;20025;-77
2023/08/18 12:53:33;;;;;;;15.73;14.23;;;;;;;;;;5033110;28;20036;-78
2023/08/18 12:55:59;;;;;;;9.45;8.38;;;;;;;;;;5030253;28;20515;-78
2023/08/18 12:58:24;;;;;;;12.77;11.47;;;;;;;;;;5033684;28;20120;-78
2023/08/18 13:00:49;;;;;;;7.35;6.65;;;;;;;;;;5033164;28;20387;-78
2023/08/18 13:03:14;;;;;;;12.07;10.87;;;;;;;;;;5033507;28;20048;-78
2023/08/18 13:05:40;;;;;;;8.30;6.63;;;;;;;;;;5033923;28;20035;-78
2023/08/18 13:08:05;;;;;;;10.45;9.13;;;;;;;;;;5015997;28;20026;-78
2023/08/18 13:10:30;;;;;;;7.60;6.82;;;;;;;;;;5032975;28;20501;-78
2023/08/18 13:12:55;;;;;;;8.37;6.57;;;;;;;;;;5024653;28;20116;-77
2023/08/18 13:15:24;;;;;;;6.78;6.07;;;;;;;;;;5033226;28;20044;-78
2023/08/18 13:17:50;;;;;;;8.05;6.93;;;;;;;;;;5033410;28;20049;-77
2023/08/18 13:20:15;;;;;;;6.90;6.20;;;;;;;;;;5032824;28;20033;-77
2023/08/18 13:22:40;;;;;;;8.73;7.03;;;;;;;;;;5015703;28;20068;-77
2023/08/18 13:25:12;;;;;;;6.97;6.27;;;;;;;;;;5033632;28;20038;-78
2023/08/18 13:27:38;;;;;;;6.63;6.03;;;;;;;;;;5033404;28;20048;-78
2023/08/18 13:30:05;;;;;;;6.47;5.88;;;;;;;;;;5031896;28;20376;-78
2023/08/18 13:32:30;;;;;;;7.45;6.47;;;;;;;;;;5033563;28;20033;-78
2023/08/18 13:34:55;;;;;;;6.57;5.87;;;;;;;;;;5016765;28;20041;-77
2023/08/18 13:37:20;;;;;;;6.70;6.10;;;;;;;;;;5033644;28;20037;-77
2023/08/18 13:39:46;;;;;;;7.00;6.30;;;;;;;;;;5031812;28;20116;-78
2023/08/18 13:42:11;;;;;;;8.40;7.53;;;;;;;;;;5032621;28;20141;-78
2023/08/18 13:44:36;;;;;;;6.47;5.87;;;;;;;;;;5032585;28;20338;-78
2023/08/18 13:47:01;;;;;;;6.67;6.07;;;;;;;;;;5032827;28;20052;-78
2023/08/18 13:49:27;;;;;;;6.35;5.72;;;;;;;;;;5014974;28;20044;-77
2023/08/18 13:51:53;;;;;;;7.63;5.95;;;;;;;;;;4999067;28;20028;-78
2023/08/18 13:54:18;;;;;;;6.83;6.20;;;;;;;;;;5034642;28;20120;-78
2023/08/18 13:56:43;;;;;;;6.33;5.60;;;;;;;;;;5032610;28;20025;-77
2023/08/18 13:59:08;;;;;;;7.25;5.68;;;;;;;;;;5020692;28;20836;-78
2023/08/18 14:01:34;;;;;;;7.60;6.63;;;;;;;;;;5031401;28;20030;-78
2023/08/18 14:03:59;;;;;;;7.35;6.43;;;;;;;;;;5032989;28;20049;-77
2023/08/18 14:06:25;;;;;;;8.70;6.68;;;;;;;;;;5032638;28;20033;-77
2023/08/18 14:08:50;;;;;;;7.43;6.73;;;;;;;;;;5020776;28;20037;-78
2023/08/18 14:11:15;;;;;;;7.77;6.90;;;;;;;;;;5022151;28;20025;-78
2023/08/18 14:13:42;;;;;;;8.83;7.17;;;;;;;;;;5032946;28;20033;-78
2023/08/18 14:16:07;;;;;;;7.38;6.35;;;;;;;;;;5022998;28;20279;-78